Time;durP1;ratioP1;P1;durP2;ratioP2;P2;SDS_P1;SDS_P2;PMS_P1;PMS_P2;Temp;Humidity;BMP_temperature;BMP_pressure;BME280_temperature;BME280_humidity;BME280_pressure;Samples;Min_cycle;Max_cycle;Signal;HPM_P1;HPM_P2
2024/01/28 00:00:09;;;;;;;9.90;6.10;;;1.50;99.70;;;;;;5086218;28;20642;-76
2024/01/28 00:02:36;;;;;;;9.23;6.23;;;1.50;99.80;;;;;;5086119;28;20200;-76
2024/01/28 00:05:03;;;;;;;9.67;6.57;;;1.50;99.90;;;;;;5088575;28;20223;-76
2024/01/28 00:07:31;;;;;;;10.87;5.93;;;1.60;99.90;;;;;;5087269;28;20653;-76
2024/01/28 00:09:57;;;;;;;11.00;6.00;;;1.60;99.80;;;;;;5094024;28;20200;-75
2024/01/28 00:12:24;;;;;;;10.90;6.40;;;1.50;99.50;;;;;;5095460;28;20231;-76
2024/01/28 00:14:51;;;;;;;11.57;6.50;;;1.50;99.50;;;;;;5092209;28;20953;-76
2024/01/28 00:17:18;;;;;;;9.27;6.53;;;1.30;98.70;;;;;;5081141;28;20196;-75
2024/01/28 00:19:44;;;;;;;11.07;5.40;;;1.10;99.40;;;;;;5091890;28;20207;-76
2024/01/28 00:22:11;;;;;;;9.83;6.23;;;0.90;99.40;;;;;;5089488;28;20207;-76
2024/01/28 00:24:39;;;;;;;10.67;6.80;;;0.90;99.90;;;;;;5096190;28;20192;-76
2024/01/28 00:27:06;;;;;;;11.57;6.50;;;1.00;99.90;;;;;;5080972;28;20559;-76
2024/01/28 00:29:33;;;;;;;10.93;5.80;;;1.10;99.90;;;;;;5083150;28;20649;-75
2024/01/28 00:32:00;;;;;;;13.57;6.23;;;1.10;99.90;;;;;;5092980;28;20193;-76
2024/01/28 00:34:27;;;;;;;11.93;6.67;;;1.00;99.90;;;;;;5091402;28;20224;-76
2024/01/28 00:36:54;;;;;;;11.17;6.80;;;1.00;99.90;;;;;;5081372;28;20226;-75
2024/01/28 00:39:21;;;;;;;9.33;6.40;;;1.10;99.90;;;;;;5093735;28;20653;-76
2024/01/28 00:41:49;;;;;;;11.53;7.00;;;1.10;99.90;;;;;;5078188;28;20200;-76
2024/01/28 00:44:16;;;;;;;9.07;6.33;;;0.90;99.60;;;;;;5087461;28;20197;-76
2024/01/28 00:46:42;;;;;;;9.97;6.17;;;0.70;99.60;;;;;;5078968;28;20226;-76
2024/01/28 00:49:09;;;;;;;8.57;5.77;;;0.70;99.90;;;;;;5082277;28;20201;-76
2024/01/28 00:51:36;;;;;;;13.10;6.10;;;0.90;99.90;;;;;;5092128;28;20200;-76
2024/01/28 00:54:03;;;;;;;7.93;5.77;;;1.00;99.90;;;;;;5082456;28;20224;-77
2024/01/28 00:56:31;;;;;;;8.63;5.73;;;1.10;99.90;;;;;;5080890;28;20193;-76
2024/01/28 00:58:59;;;;;;;10.00;5.77;;;1.00;99.90;;;;;;5086113;28;20208;-76
2024/01/28 01:01:25;;;;;;;9.00;6.03;;;0.90;99.40;;;;;;5083734;28;20655;-76
2024/01/28 01:03:52;;;;;;;10.33;5.60;;;0.60;99.30;;;;;;5083852;28;20672;-75
2024/01/28 01:06:19;;;;;;;8.57;5.80;;;0.40;99.30;;;;;;5086933;28;20555;-76
2024/01/28 01:08:46;;;;;;;7.30;5.70;;;0.40;99.90;;;;;;5089796;28;20545;-76
2024/01/28 01:11:14;;;;;;;8.23;5.37;;;0.50;99.90;;;;;;5086401;28;20608;-75
2024/01/28 01:13:41;;;;;;;8.03;4.93;;;0.50;99.90;;;;;;5090370;28;20220;-76
2024/01/28 01:16:09;;;;;;;8.93;5.60;;;0.50;99.90;;;;;;5104932;28;20215;-76
2024/01/28 01:18:36;;;;;;;7.63;5.10;;;0.50;99.90;;;;;;5092400;28;20203;-76
2024/01/28 01:21:03;;;;;;;9.87;5.13;;;0.50;99.90;;;;;;5088986;28;20858;-76
2024/01/28 01:23:30;;;;;;;6.67;4.60;;;0.60;99.90;;;;;;5082007;28;20201;-78
2024/01/28 01:25:57;;;;;;;9.13;5.23;;;0.70;99.90;;;;;;5087015;28;20265;-77
2024/01/28 01:28:31;;;;;;;6.83;4.90;;;0.70;99.90;;;;;;5078521;28;20212;-76
2024/01/28 01:30:58;;;;;;;6.30;4.73;;;0.70;99.90;;;;;;5081905;28;20188;-76
2024/01/28 01:33:26;;;;;;;9.10;4.90;;;0.60;99.90;;;;;;5080881;28;20237;-76
2024/01/28 01:35:52;;;;;;;9.33;5.43;;;0.70;99.90;;;;;;5085484;28;20199;-76
2024/01/28 01:38:20;;;;;;;9.67;5.30;;;0.80;99.90;;;;;;5077608;28;20216;-76
2024/01/28 01:40:46;;;;;;;7.23;5.50;;;0.80;99.90;;;;;;5088264;28;20189;-76
2024/01/28 01:43:15;;;;;;;8.57;5.50;;;0.80;99.40;;;;;;5084781;28;20189;-76
2024/01/28 01:45:43;;;;;;;7.77;4.80;;;0.80;99.60;;;;;;5087513;28;20249;-76
2024/01/28 01:48:12;;;;;;;9.30;5.53;;;0.70;99.30;;;;;;5087523;28;20201;-75
2024/01/28 01:50:42;;;;;;;6.80;4.93;;;0.50;99.30;;;;;;5083385;28;20764;-77
2024/01/28 01:53:10;;;;;;;7.40;5.00;;;0.50;99.90;;;;;;5085244;28;20193;-75
2024/01/28 01:55:39;;;;;;;6.23;4.80;;;0.50;99.90;;;;;;5081478;28;20200;-76
2024/01/28 01:58:07;;;;;;;7.57;4.90;;;0.60;99.90;;;;;;5087329;28;20545;-76
2024/01/28 02:00:35;;;;;;;7.10;4.97;;;0.60;99.70;;;;;;5086333;28;20199;-76
2024/01/28 02:03:03;;;;;;;7.93;5.00;;;0.40;99.80;;;;;;5084362;28;20196;-76
2024/01/28 02:05:30;;;;;;;8.93;5.17;;;0.40;99.90;;;;;;5094577;28;20406;-77
2024/01/28 02:07:58;;;;;;;8.60;5.90;;;0.30;99.90;;;;;;5084630;28;20200;-76
2024/01/28 02:10:25;;;;;;;8.33;5.10;;;0.20;99.90;;;;;;5087382;28;20220;-76
2024/01/28 02:12:52;;;;;;;7.50;5.40;;;0.30;99.90;;;;;;5081046;28;20200;-76
2024/01/28 02:15:20;;;;;;;8.13;5.10;;;0.10;99.90;;;;;;5081673;28;20220;-76
2024/01/28 02:17:47;;;;;;;7.73;4.80;;;0.30;99.90;;;;;;5085599;28;20220;-76
2024/01/28 02:20:14;;;;;;;6.87;4.60;;;0.20;99.90;;;;;;5087452;28;20198;-75
2024/01/28 02:22:40;;;;;;;7.17;4.70;;;0.30;99.90;;;;;;5085259;28;20196;-73
2024/01/28 02:25:09;;;;;;;7.17;4.60;;;0.30;99.90;;;;;;5091875;28;20203;-76
2024/01/28 02:27:36;;;;;;;8.73;4.77;;;0.20;99.90;;;;;;5089738;28;20292;-76
2024/01/28 02:30:04;;;;;;;7.23;4.50;;;0.30;99.90;;;;;;5087300;28;20726;-76
2024/01/28 02:32:30;;;;;;;8.83;4.37;;;0.40;99.90;;;;;;5083079;28;20193;-76
2024/01/28 02:34:57;;;;;;;5.93;4.23;;;0.50;99.90;;;;;;5080084;28;20224;-76
2024/01/28 02:37:24;;;;;;;5.73;4.50;;;0.50;99.70;;;;;;5082060;28;20540;-76
2024/01/28 02:39:51;;;;;;;6.17;4.50;;;0.50;99.30;;;;;;5081944;28;20286;-75
2024/01/28 02:42:19;;;;;;;6.20;4.50;;;0.40;99.30;;;;;;5077660;28;20193;-76
2024/01/28 02:44:46;;;;;;;7.27;4.77;;;0.30;99.20;;;;;;5080968;28;20201;-76
2024/01/28 02:47:13;;;;;;;5.50;4.20;;;0.20;99.20;;;;;;5083267;28;20201;-76
2024/01/28 02:49:40;;;;;;;5.43;4.13;;;0.30;99.90;;;;;;5084592;28;20201;-76
2024/01/28 02:52:07;;;;;;;6.63;4.00;;;0.40;99.90;;;;;;5081946;28;20989;-76
2024/01/28 02:54:34;;;;;;;8.57;3.90;;;0.50;99.60;;;;;;5083437;28;20221;-79
2024/01/28 02:57:01;;;;;;;5.17;4.17;;;0.30;99.30;;;;;;5087290;28;20607;-76
2024/01/28 02:59:29;;;;;;;5.30;3.73;;;0.20;99.20;;;;;;5090967;28;20200;-76
2024/01/28 03:01:55;;;;;;;5.27;4.37;;;0.00;99.20;;;;;;5077870;28;21021;-76
2024/01/28 03:04:22;;;;;;;5.40;4.10;;;0.00;99.90;;;;;;5085228;28;20696;-76
2024/01/28 03:06:49;;;;;;;8.10;4.70;;;0.10;99.90;;;;;;5088714;28;20287;-76
2024/01/28 03:09:17;;;;;;;5.83;3.90;;;0.20;99.90;;;;;;5081012;28;20207;-75
2024/01/28 03:11:44;;;;;;;6.37;4.40;;;0.30;99.80;;;;;;5080685;28;20218;-76
2024/01/28 03:14:11;;;;;;;4.90;3.83;;;0.30;99.70;;;;;;5089119;28;20227;-76
2024/01/28 03:16:39;;;;;;;6.03;4.17;;;0.40;99.30;;;;;;5083524;28;20665;-75
2024/01/28 03:19:06;;;;;;;5.27;3.77;;;0.30;99.50;;;;;;5091124;28;20208;-75
2024/01/28 03:21:33;;;;;;;4.70;3.70;;;0.30;99.30;;;;;;5076964;28;20205;-75
2024/01/28 03:24:00;;;;;;;5.37;4.10;;;0.20;99.50;;;;;;5084398;28;20192;-76
2024/01/28 03:26:27;;;;;;;6.20;3.90;;;0.30;99.60;;;;;;5085513;28;20201;-76
2024/01/28 03:28:53;;;;;;;5.30;3.77;;;0.30;99.30;;;;;;5088274;28;20201;-75
2024/01/28 03:31:20;;;;;;;4.83;3.50;;;0.30;99.50;;;;;;5087765;28;20212;-75
2024/01/28 03:33:48;;;;;;;5.87;3.80;;;0.30;99.60;;;;;;5080644;28;20204;-73
2024/01/28 03:36:15;;;;;;;6.43;3.90;;;0.40;99.50;;;;;;5090320;28;20188;-76
2024/01/28 03:38:42;;;;;;;6.67;3.70;;;0.50;99.30;;;;;;5083456;28;20578;-75
2024/01/28 03:41:09;;;;;;;7.23;3.83;;;0.50;99.30;;;;;;5088330;28;20197;-73
2024/01/28 03:43:35;;;;;;;5.10;3.73;;;0.40;98.70;;;;;;5082125;28;20208;-75
2024/01/28 03:46:03;;;;;;;5.03;3.70;;;0.30;98.60;;;;;;5082025;28;20201;-74
2024/01/28 03:48:30;;;;;;;5.87;3.70;;;0.30;99.20;;;;;;5079501;28;20213;-74
2024/01/28 03:50:58;;;;;;;4.90;3.57;;;0.40;99.30;;;;;;5087289;28;20204;-77
2024/01/28 03:53:25;;;;;;;3.77;3.37;;;0.40;99.00;;;;;;5089253;28;20192;-73
2024/01/28 03:55:51;;;;;;;7.00;3.70;;;0.30;98.60;;;;;;5088528;28;20704;-74
2024/01/28 03:58:18;;;;;;;7.77;3.53;;;0.30;99.20;;;;;;5076785;28;20550;-77
2024/01/28 04:00:45;;;;;;;6.00;3.67;;;0.30;98.70;;;;;;5080461;28;20205;-74
2024/01/28 04:03:12;;;;;;;5.10;4.03;;;0.10;98.80;;;;;;5087876;28;20201;-74
2024/01/28 04:05:38;;;;;;;4.37;3.53;;;0.00;98.90;;;;;;5086667;28;20225;-73
2024/01/28 04:08:10;;;;;;;5.67;4.10;;;0.10;99.20;;;;;;5072769;28;20216;-74
2024/01/28 04:10:37;;;;;;;5.43;3.70;;;0.10;99.20;;;;;;5084701;28;20189;-73
2024/01/28 04:13:04;;;;;;;7.23;4.03;;;0.10;99.30;;;;;;5090238;28;20204;-74
2024/01/28 04:15:31;;;;;;;7.07;4.33;;;0.10;99.60;;;;;;5073200;28;20217;-74
2024/01/28 04:17:57;;;;;;;7.30;4.77;;;0.30;99.90;;;;;;5077810;28;20288;-74
2024/01/28 04:20:24;;;;;;;6.90;4.60;;;0.20;99.50;;;;;;5084833;28;20192;-74
2024/01/28 04:22:51;;;;;;;9.83;4.73;;;0.30;99.90;;;;;;5089271;28;20200;-73
2024/01/28 04:25:19;;;;;;;7.40;4.70;;;0.30;99.60;;;;;;5086494;28;20197;-73
2024/01/28 04:27:46;;;;;;;4.97;4.30;;;0.30;99.90;;;;;;5091520;28;20205;-73
2024/01/28 04:30:13;;;;;;;7.87;4.50;;;0.30;99.40;;;;;;5080923;28;20391;-74
2024/01/28 04:32:40;;;;;;;8.03;4.67;;;0.20;99.50;;;;;;5089144;28;20599;-74
2024/01/28 04:35:11;;;;;;;6.03;4.37;;;0.30;99.90;;;;;;5084359;28;20239;-74
2024/01/28 04:37:37;;;;;;;6.67;4.43;;;0.30;99.80;;;;;;5081612;28;20194;-74
2024/01/28 04:40:05;;;;;;;5.90;4.57;;;0.40;99.80;;;;;;5083019;28;20203;-75
2024/01/28 04:42:33;;;;;;;8.23;4.90;;;0.20;99.20;;;;;;5084454;28;20668;-74
2024/01/28 04:45:00;;;;;;;6.90;4.60;;;0.20;99.40;;;;;;5083109;28;20207;-74
2024/01/28 04:47:27;;;;;;;6.73;5.20;;;0.20;99.90;;;;;;5093571;28;20199;-74
2024/01/28 04:49:53;;;;;;;7.07;4.60;;;0.20;99.70;;;;;;5078699;28;20197;-74
2024/01/28 04:52:20;;;;;;;6.63;4.70;;;0.20;99.90;;;;;;5090174;28;20204;-74
2024/01/28 04:54:48;;;;;;;6.50;4.73;;;0.20;99.20;;;;;;5073299;28;20221;-74
2024/01/28 04:57:15;;;;;;;5.83;4.47;;;0.20;99.80;;;;;;5094763;28;20239;-74
2024/01/28 04:59:43;;;;;;;6.00;4.37;;;0.20;99.80;;;;;;5079902;28;20199;-75
2024/01/28 05:02:10;;;;;;;7.93;4.70;;;0.10;99.90;;;;;;5082621;28;20205;-75
2024/01/28 05:04:36;;;;;;;6.73;4.67;;;0.20;99.90;;;;;;5084884;28;20580;-74
2024/01/28 05:07:04;;;;;;;5.07;4.37;;;0.20;99.70;;;;;;5081652;28;20672;-74
2024/01/28 05:09:32;;;;;;;7.47;4.63;;;0.10;99.90;;;;;;5097879;28;20205;-74
2024/01/28 05:11:59;;;;;;;7.50;4.33;;;0.20;99.90;;;;;;5091841;28;20257;-74
2024/01/28 05:14:26;;;;;;;5.73;4.30;;;0.30;99.90;;;;;;5091760;28;20281;-74
2024/01/28 05:16:54;;;;;;;5.07;4.40;;;0.30;99.80;;;;;;5076242;28;20201;-74
2024/01/28 05:19:21;;;;;;;6.10;4.70;;;0.30;99.20;;;;;;5082209;28;20197;-74
2024/01/28 05:21:47;;;;;;;5.83;4.40;;;0.00;98.80;;;;;;5082262;28;20197;-75
2024/01/28 05:24:14;;;;;;;5.53;4.50;;;-0.20;99.10;;;;;;5093082;28;20200;-74
2024/01/28 05:26:42;;;;;;;6.27;4.83;;;-0.30;99.30;;;;;;5091072;28;20199;-74
2024/01/28 05:29:09;;;;;;;5.90;4.77;;;-0.40;99.80;;;;;;5087651;28;20593;-74
2024/01/28 05:31:36;;;;;;;6.93;4.10;;;-0.50;99.90;;;;;;5085993;28;20192;-76
2024/01/28 05:34:04;;;;;;;5.17;4.33;;;-0.50;99.90;;;;;;5096948;28;20193;-75
2024/01/28 05:36:31;;;;;;;6.70;4.27;;;-0.20;99.90;;;;;;5087598;28;20228;-74
2024/01/28 05:38:58;;;;;;;6.13;4.50;;;-0.20;99.90;;;;;;5082397;28;20288;-74
2024/01/28 05:41:25;;;;;;;4.70;4.20;;;-0.10;99.90;;;;;;5085656;28;20204;-74
2024/01/28 05:43:52;;;;;;;5.60;4.07;;;-0.20;99.90;;;;;;5090038;28;20201;-74
2024/01/28 05:46:19;;;;;;;5.60;4.33;;;-0.10;99.90;;;;;;5089476;28;20234;-74
2024/01/28 05:48:45;;;;;;;4.77;4.10;;;0.10;99.90;;;;;;5088947;28;20215;-73
2024/01/28 05:51:13;;;;;;;5.90;4.00;;;0.00;99.60;;;;;;5084465;28;20200;-74
2024/01/28 05:53:40;;;;;;;5.70;4.13;;;0.10;99.80;;;;;;5093541;28;20196;-74
2024/01/28 05:56:07;;;;;;;6.60;4.27;;;0.30;99.90;;;;;;5091173;28;20275;-74
2024/01/28 05:58:34;;;;;;;7.43;4.40;;;0.40;99.30;;;;;;5088095;28;20189;-75
2024/01/28 06:01:06;;;;;;;5.27;4.57;;;0.10;98.20;;;;;;5092474;28;20306;-74
2024/01/28 06:03:33;;;;;;;110.87;62.13;;;0.30;99.20;;;;;;5088062;28;20193;-74
2024/01/28 06:06:03;;;;;;;36.47;23.23;;;0.00;99.20;;;;;;5081192;28;20347;-75
2024/01/28 06:08:31;;;;;;;6.97;5.07;;;0.00;99.50;;;;;;5090791;28;20243;-75
2024/01/28 06:10:59;;;;;;;7.97;4.90;;;0.30;99.90;;;;;;5091536;28;20204;-75
2024/01/28 06:13:25;;;;;;;5.90;4.20;;;0.30;99.90;;;;;;5087626;28;20199;-75
2024/01/28 06:15:53;;;;;;;5.47;4.30;;;0.60;99.30;;;;;;5084819;28;20236;-74
2024/01/28 06:18:20;;;;;;;5.83;4.33;;;0.60;99.00;;;;;;5089880;28;20204;-74
2024/01/28 06:20:47;;;;;;;5.80;4.50;;;0.20;97.60;;;;;;5074945;28;20520;-74
2024/01/28 06:23:14;;;;;;;8.20;5.30;;;-0.10;98.00;;;;;;5091133;28;20203;-73
2024/01/28 06:25:42;;;;;;;6.23;4.87;;;-0.20;98.60;;;;;;5089151;28;20204;-75
2024/01/28 06:28:08;;;;;;;24.20;15.03;;;-0.40;99.10;;;;;;5092253;28;20571;-76
2024/01/28 06:30:35;;;;;;;9.23;7.13;;;-0.20;99.90;;;;;;5073968;28;20197;-75
2024/01/28 06:33:03;;;;;;;6.37;4.80;;;0.10;99.80;;;;;;5088883;28;20690;-75
2024/01/28 06:35:30;;;;;;;10.60;7.00;;;-0.10;99.20;;;;;;5088186;28;20220;-75
2024/01/28 06:37:56;;;;;;;10.20;6.50;;;-0.20;99.20;;;;;;5085723;28;20209;-75
2024/01/28 06:40:23;;;;;;;9.17;6.03;;;0.40;99.30;;;;;;5081481;28;20205;-74
2024/01/28 06:42:52;;;;;;;6.33;5.43;;;0.50;98.40;;;;;;5087560;28;20193;-74
2024/01/28 06:45:19;;;;;;;6.70;4.20;;;1.10;96.20;;;;;;5091824;28;20204;-74
2024/01/28 06:47:47;;;;;;;8.57;5.00;;;1.30;93.60;;;;;;5085620;28;20653;-75
2024/01/28 06:50:13;;;;;;;5.77;4.43;;;0.90;94.20;;;;;;5067899;28;20221;-75
2024/01/28 06:52:40;;;;;;;7.17;4.60;;;0.50;94.90;;;;;;5087814;28;20724;-74
2024/01/28 06:55:07;;;;;;;5.77;4.60;;;0.60;95.90;;;;;;5086231;28;20220;-74
2024/01/28 06:57:34;;;;;;;5.30;4.50;;;0.80;96.00;;;;;;5077511;28;20196;-74
2024/01/28 07:00:04;;;;;;;7.37;4.10;;;1.00;95.70;;;;;;5087619;28;20196;-75
2024/01/28 07:02:32;;;;;;;7.20;4.20;;;0.80;95.70;;;;;;5083148;28;20230;-74
2024/01/28 07:04:59;;;;;;;5.30;4.50;;;0.60;95.50;;;;;;5084313;28;20220;-73
2024/01/28 07:07:26;;;;;;;5.40;4.50;;;0.60;97.30;;;;;;5080575;28;20650;-74
2024/01/28 07:09:52;;;;;;;6.53;4.63;;;0.70;96.00;;;;;;5086087;28;20209;-74
2024/01/28 07:12:19;;;;;;;8.07;4.67;;;0.40;96.50;;;;;;5079317;28;20189;-75
2024/01/28 07:14:46;;;;;;;6.87;4.50;;;0.80;95.50;;;;;;5087409;28;20192;-74
2024/01/28 07:17:14;;;;;;;6.47;4.60;;;0.40;94.90;;;;;;5084053;28;20701;-75
2024/01/28 07:19:41;;;;;;;7.37;5.10;;;0.10;95.50;;;;;;5078782;28;20193;-76
2024/01/28 07:22:11;;;;;;;21.40;12.87;;;-0.20;96.60;;;;;;5081596;28;20196;-75
2024/01/28 07:24:38;;;;;;;29.27;18.87;;;-0.10;99.80;;;;;;5082722;28;20231;-73
2024/01/28 07:27:05;;;;;;;15.17;10.13;;;0.30;99.10;;;;;;5083175;28;20205;-74
2024/01/28 07:29:32;;;;;;;15.50;10.80;;;0.30;98.60;;;;;;5082424;28;20201;-74
2024/01/28 07:31:59;;;;;;;21.73;12.43;;;0.60;98.30;;;;;;5089322;28;20958;-75
2024/01/28 07:34:27;;;;;;;8.87;5.87;;;0.90;98.20;;;;;;5077773;28;20201;-75
2024/01/28 07:36:54;;;;;;;13.93;9.27;;;0.90;96.20;;;;;;5079014;28;20585;-75
2024/01/28 07:39:21;;;;;;;10.67;7.07;;;0.90;97.30;;;;;;5088214;28;20262;-74
2024/01/28 07:41:48;;;;;;;7.53;5.50;;;1.00;97.10;;;;;;5088134;28;20199;-75
2024/01/28 07:44:14;;;;;;;7.10;5.20;;;1.10;96.40;;;;;;5083651;28;20648;-75
2024/01/28 07:46:41;;;;;;;8.20;5.23;;;1.10;96.10;;;;;;5080269;28;20197;-74
2024/01/28 07:49:08;;;;;;;6.20;4.77;;;1.10;95.30;;;;;;5085903;28;20207;-75
2024/01/28 07:51:36;;;;;;;5.43;4.23;;;1.30;95.70;;;;;;5078676;28;20204;-75
2024/01/28 07:54:03;;;;;;;7.10;4.77;;;1.50;94.70;;;;;;5083682;28;20203;-74
2024/01/28 07:56:30;;;;;;;6.90;4.47;;;1.40;95.10;;;;;;5075369;28;20213;-75
2024/01/28 07:58:56;;;;;;;6.10;4.27;;;1.50;94.70;;;;;;5079886;28;20197;-74
2024/01/28 08:01:23;;;;;;;5.57;4.53;;;1.70;94.40;;;;;;5085518;28;20204;-75
2024/01/28 08:03:50;;;;;;;6.13;4.50;;;1.70;94.40;;;;;;5094965;28;20595;-75
2024/01/28 08:06:17;;;;;;;8.03;4.87;;;1.80;94.10;;;;;;5085617;28;20207;-75
2024/01/28 08:08:44;;;;;;;7.30;5.53;;;2.50;93.80;;;;;;5077413;28;20212;-76
2024/01/28 08:11:11;;;;;;;9.10;6.83;;;2.60;92.00;;;;;;5086072;28;20221;-76
2024/01/28 08:13:37;;;;;;;4.93;4.07;;;2.60;91.70;;;;;;5089080;28;20200;-76
2024/01/28 08:16:05;;;;;;;11.33;6.93;;;2.40;91.30;;;;;;5080077;28;20227;-76
2024/01/28 08:18:32;;;;;;;12.87;8.77;;;2.60;92.20;;;;;;5097359;28;20189;-77
2024/01/28 08:20:58;;;;;;;17.03;10.90;;;2.70;92.00;;;;;;5085896;28;20211;-75
2024/01/28 08:23:26;;;;;;;6.90;4.20;;;2.80;91.90;;;;;;5088820;28;20253;-77
2024/01/28 08:25:54;;;;;;;9.40;6.27;;;2.90;90.70;;;;;;5089899;28;20209;-76
2024/01/28 08:28:22;;;;;;;15.23;7.80;;;2.70;91.10;;;;;;5083592;28;20888;-76
2024/01/28 08:30:48;;;;;;;13.10;8.73;;;2.80;91.60;;;;;;5092081;28;20205;-76
2024/01/28 08:33:17;;;;;;;12.10;8.60;;;2.80;91.40;;;;;;5091834;28;20197;-76
2024/01/28 08:35:44;;;;;;;5.23;4.00;;;3.00;91.20;;;;;;5082193;28;20216;-76
2024/01/28 08:38:11;;;;;;;5.27;3.93;;;3.20;90.30;;;;;;5097196;28;20201;-76
2024/01/28 08:40:38;;;;;;;5.50;3.97;;;3.40;88.00;;;;;;5086032;28;20189;-76
2024/01/28 08:43:07;;;;;;;6.20;4.53;;;3.70;84.60;;;;;;5084529;28;20257;-77
2024/01/28 08:45:36;;;;;;;4.30;3.17;;;4.00;81.90;;;;;;5071495;28;20246;-76
2024/01/28 08:48:03;;;;;;;3.67;3.10;;;4.20;80.10;;;;;;5086613;28;20233;-77
2024/01/28 08:50:29;;;;;;;6.07;3.70;;;4.20;78.00;;;;;;5093979;28;20207;-77
2024/01/28 08:52:56;;;;;;;3.93;3.23;;;4.30;79.70;;;;;;5097743;28;20200;-80
2024/01/28 08:55:23;;;;;;;3.20;2.90;;;4.50;78.60;;;;;;5089692;28;20196;-79
2024/01/28 08:57:50;;;;;;;5.93;4.37;;;4.60;77.70;;;;;;5082612;28;20201;-79
2024/01/28 09:00:19;;;;;;;6.53;4.30;;;4.90;77.10;;;;;;5088643;28;20916;-79
2024/01/28 09:02:46;;;;;;;7.28;4.75;;;5.30;74.90;;;;;;5080094;28;20224;-79
2024/01/28 09:05:12;;;;;;;4.22;2.90;;;5.90;70.70;;;;;;5082787;28;20707;-79
2024/01/28 09:07:41;;;;;;;3.95;3.38;;;6.00;62.90;;;;;;5084706;28;20207;-79
2024/01/28 09:10:09;;;;;;;4.43;3.80;;;6.70;59.90;;;;;;5082258;28;20202;-80
2024/01/28 09:12:35;;;;;;;4.85;3.67;;;7.50;51.50;;;;;;5089864;28;20193;-80
2024/01/28 09:15:02;;;;;;;3.92;3.28;;;8.20;40.00;;;;;;5078177;28;20201;-79
2024/01/28 09:17:39;;;;;;;3.97;3.58;;;9.00;34.40;;;;;;5082266;28;20628;-79
2024/01/28 09:20:08;;;;;;;2.72;2.40;;;9.80;31.20;;;;;;5083708;28;20286;-81
2024/01/28 09:22:36;;;;;;;5.25;3.75;;;10.60;24.20;;;;;;5087351;28;20649;-79
2024/01/28 09:25:03;;;;;;;3.42;3.13;;;10.80;24.30;;;;;;5085294;28;20675;-81
2024/01/28 09:27:30;;;;;;;3.58;2.90;;;11.20;22.30;;;;;;5080411;28;20205;-81
2024/01/28 09:29:58;;;;;;;3.97;3.58;;;11.70;18.40;;;;;;5081442;28;20653;-81
2024/01/28 09:32:25;;;;;;;6.45;5.57;;;12.50;18.20;;;;;;5086646;28;20246;-80
2024/01/28 09:34:53;;;;;;;2.90;2.60;;;13.30;16.30;;;;;;5083834;28;20633;-79
2024/01/28 09:37:21;;;;;;;3.83;2.28;;;13.90;15.00;;;;;;5078558;28;20224;-78
2024/01/28 09:39:48;;;;;;;5.80;4.82;;;13.50;14.40;;;;;;5088198;28;20946;-78
2024/01/28 09:42:22;;;;;;;4.63;3.88;;;13.90;15.70;;;;;;5084420;28;20211;-79
2024/01/28 09:44:50;;;;;;;2.97;2.67;;;14.10;13.90;;;;;;5094344;28;20200;-79
2024/01/28 09:47:19;;;;;;;3.70;2.42;;;14.20;13.70;;;;;;5089188;28;20218;-76
2024/01/28 09:49:47;;;;;;;2.42;2.22;;;14.90;12.30;;;;;;5084712;28;20193;-75
2024/01/28 09:52:16;;;;;;;2.63;2.42;;;15.00;10.40;;;;;;5081756;28;20207;-75
2024/01/28 09:54:44;;;;;;;2.22;2.03;;;15.10;9.40;;;;;;5077449;28;20259;-79
2024/01/28 09:57:12;;;;;;;2.80;2.53;;;14.40;10.70;;;;;;5072340;28;20226;-77
2024/01/28 09:59:39;;;;;;;3.40;2.35;;;13.00;11.80;;;;;;5086687;28;20192;-79
2024/01/28 10:02:07;;;;;;;2.20;2.00;;;13.00;12.40;;;;;;5083340;28;20652;-78
2024/01/28 10:04:34;;;;;;;3.60;2.22;;;13.00;13.30;;;;;;5091571;28;20224;-78
2024/01/28 10:07:02;;;;;;;2.28;2.08;;;12.80;12.50;;;;;;5082868;28;20201;-78
2024/01/28 10:09:31;;;;;;;2.72;2.15;;;13.00;13.80;;;;;;5082529;28;20197;-77
2024/01/28 10:11:59;;;;;;;2.30;2.10;;;13.60;11.90;;;;;;5081031;28;20292;-81
2024/01/28 10:14:26;;;;;;;2.22;1.80;;;14.00;11.70;;;;;;5088012;28;20201;-78
2024/01/28 10:16:54;;;;;;;2.20;2.00;;;15.10;10.70;;;;;;5089181;28;20216;-78
2024/01/28 10:19:20;;;;;;;2.35;1.90;;;14.80;10.50;;;;;;5081641;28;20581;-76
2024/01/28 10:21:47;;;;;;;3.85;1.75;;;15.70;8.20;;;;;;5081692;28;20189;-78
2024/01/28 10:24:16;;;;;;;3.65;2.03;;;14.50;9.00;;;;;;5078962;28;20200;-78
2024/01/28 10:26:44;;;;;;;2.33;2.13;;;14.80;8.30;;;;;;5079117;28;20254;-79
2024/01/28 10:29:13;;;;;;;1.88;1.77;;;14.80;9.50;;;;;;5088156;28;20284;-79
2024/01/28 10:31:40;;;;;;;2.05;1.95;;;15.10;8.30;;;;;;5084840;28;20197;-78
2024/01/28 10:34:12;;;;;;;2.17;1.98;;;14.60;8.70;;;;;;5092949;28;20286;-78
2024/01/28 10:36:48;;;;;;;2.30;1.90;;;14.60;9.00;;;;;;5084764;28;20282;-78
2024/01/28 10:39:16;;;;;;;1.98;1.70;;;15.30;7.90;;;;;;5076188;28;20736;-81
2024/01/28 10:41:45;;;;;;;2.20;1.80;;;15.10;7.90;;;;;;5076313;28;20240;-78
2024/01/28 10:44:15;;;;;;;2.42;1.73;;;14.60;7.50;;;;;;5078721;28;20208;-78
2024/01/28 10:46:44;;;;;;;2.08;1.92;;;14.40;7.30;;;;;;5083660;28;20193;-78
2024/01/28 10:49:12;;;;;;;2.20;1.75;;;13.80;7.90;;;;;;5083304;28;20657;-79
2024/01/28 10:51:40;;;;;;;2.20;1.70;;;13.40;9.70;;;;;;5093477;28;20203;-77
2024/01/28 10:54:08;;;;;;;2.33;1.70;;;13.60;9.40;;;;;;5079825;28;20454;-78
2024/01/28 10:56:36;;;;;;;3.00;1.88;;;13.90;9.80;;;;;;5086059;28;20315;-78
2024/01/28 10:59:05;;;;;;;3.55;2.05;;;13.80;9.70;;;;;;5085805;28;20201;-80
2024/01/28 11:01:33;;;;;;;1.90;1.70;;;13.00;10.10;;;;;;5087023;28;20201;-79
2024/01/28 11:04:01;;;;;;;3.40;1.90;;;13.10;10.20;;;;;;5088962;28;20293;-79
2024/01/28 11:06:28;;;;;;;2.25;1.90;;;13.50;10.30;;;;;;5078006;28;20202;-78
2024/01/28 11:08:55;;;;;;;4.55;1.90;;;13.20;11.30;;;;;;5081133;28;20663;-78
2024/01/28 11:11:23;;;;;;;2.85;1.80;;;13.30;11.10;;;;;;5082099;28;20247;-78
2024/01/28 11:13:50;;;;;;;2.03;1.73;;;13.50;10.60;;;;;;5083251;28;20384;-78
2024/01/28 11:16:19;;;;;;;1.65;1.52;;;13.50;9.60;;;;;;5079692;28;20201;-78
2024/01/28 11:18:56;;;;;;;1.70;1.60;;;12.90;9.70;;;;;;5080398;28;20201;-78
2024/01/28 11:21:23;;;;;;;2.33;1.45;;;12.90;9.30;;;;;;5083706;28;20201;-79
2024/01/28 11:23:50;;;;;;;1.65;1.55;;;12.50;9.80;;;;;;5082208;28;20637;-83
2024/01/28 11:26:18;;;;;;;2.10;1.60;;;11.30;12.50;;;;;;5066658;28;20204;-82
2024/01/28 11:28:49;;;;;;;2.47;1.60;;;10.40;13.70;;;;;;5090824;28;20203;-81
2024/01/28 11:31:31;;;;;;;2.85;2.00;;;10.30;15.10;;;;;;5084526;28;20566;-81
2024/01/28 11:34:08;;;;;;;1.70;1.60;;;10.30;15.60;;;;;;5077572;28;20669;-82
2024/01/28 11:36:38;;;;;;;2.33;1.75;;;10.10;16.00;;;;;;5088767;28;20220;-82
2024/01/28 11:39:05;;;;;;;1.73;1.60;;;10.00;16.60;;;;;;5087233;28;20197;-82
2024/01/28 11:41:37;;;;;;;4.43;1.85;;;10.10;16.70;;;;;;5087549;28;20198;-82
2024/01/28 11:44:04;;;;;;;4.10;1.83;;;9.70;18.40;;;;;;5086111;28;20631;-81
2024/01/28 11:46:33;;;;;;;3.00;1.60;;;9.50;18.80;;;;;;5087039;28;20189;-82
2024/01/28 11:48:59;;;;;;;2.45;1.70;;;9.50;18.50;;;;;;5084462;28;20645;-81
2024/01/28 11:51:28;;;;;;;1.80;1.70;;;9.60;18.30;;;;;;5086606;28;20548;-81
2024/01/28 11:53:55;;;;;;;2.00;1.75;;;9.60;18.50;;;;;;5092272;28;20208;-81
2024/01/28 11:56:22;;;;;;;2.53;1.80;;;9.80;18.10;;;;;;5086517;28;20201;-82
2024/01/28 11:58:50;;;;;;;2.70;1.92;;;9.80;18.40;;;;;;5086682;28;20192;-83
2024/01/28 12:01:18;;;;;;;2.38;2.00;;;9.60;18.30;;;;;;5094045;28;20204;-82
2024/01/28 12:03:46;;;;;;;3.05;1.98;;;9.70;18.30;;;;;;5091684;28;20201;-82
2024/01/28 12:06:13;;;;;;;2.90;1.75;;;9.70;18.20;;;;;;5092395;28;20201;-82
2024/01/28 12:08:41;;;;;;;2.00;1.80;;;9.80;17.20;;;;;;5088320;28;20193;-81
2024/01/28 12:11:08;;;;;;;2.08;1.60;;;9.80;17.50;;;;;;5085543;28;20205;-82
2024/01/28 12:13:35;;;;;;;1.60;1.50;;;9.90;17.10;;;;;;5088880;28;20207;-81
2024/01/28 12:16:02;;;;;;;4.22;1.75;;;9.90;17.10;;;;;;5092342;28;20613;-82
2024/01/28 12:18:33;;;;;;;1.92;1.73;;;9.80;17.00;;;;;;5094863;28;20282;-82
2024/01/28 12:21:01;;;;;;;1.83;1.60;;;9.90;16.90;;;;;;5086738;28;20250;-82
2024/01/28 12:23:30;;;;;;;1.83;1.45;;;9.80;16.70;;;;;;5085184;28;20201;-82
2024/01/28 12:25:57;;;;;;;2.22;1.40;;;9.70;15.40;;;;;;5101458;28;20641;-82
2024/01/28 12:28:24;;;;;;;2.22;1.30;;;9.80;14.80;;;;;;5080729;28;20207;-83
2024/01/28 12:30:53;;;;;;;1.98;1.55;;;9.80;14.80;;;;;;5082906;28;20296;-82
2024/01/28 12:33:20;;;;;;;1.67;1.42;;;9.80;14.60;;;;;;5093755;28;20189;-82
2024/01/28 12:35:46;;;;;;;1.85;1.20;;;9.70;14.70;;;;;;5089363;28;20188;-81
2024/01/28 12:38:14;;;;;;;1.75;1.60;;;9.70;14.70;;;;;;5083602;28;20217;-82
2024/01/28 12:40:41;;;;;;;1.55;1.20;;;9.70;14.10;;;;;;5089774;28;20736;-79
2024/01/28 12:43:08;;;;;;;1.30;1.20;;;9.80;14.20;;;;;;5093167;28;20219;-79
2024/01/28 12:45:36;;;;;;;1.33;1.20;;;9.70;14.30;;;;;;5092246;28;20547;-79
2024/01/28 12:48:04;;;;;;;2.70;1.20;;;9.70;14.70;;;;;;5093543;28;20254;-79
2024/01/28 12:50:31;;;;;;;4.30;1.60;;;9.80;14.40;;;;;;5088943;28;20660;-79
2024/01/28 12:52:58;;;;;;;4.97;1.20;;;9.90;14.90;;;;;;5087686;28;20197;-79